createdAt,value
2023-05-14T00:01:58.780Z,10.35
2023-05-14T00:04:26.383Z,9.77
2023-05-14T00:06:54.150Z,10.43
2023-05-14T00:09:21.527Z,10.85
2023-05-14T00:11:48.880Z,10.32
2023-05-14T00:14:16.359Z,9.73
2023-05-14T00:16:43.694Z,10.40
2023-05-14T00:19:11.250Z,10.32
2023-05-14T00:21:38.680Z,10.07
2023-05-14T00:24:06.398Z,9.38
2023-05-14T00:26:33.852Z,10.48
2023-05-14T00:29:01.309Z,10.18
2023-05-14T00:31:28.671Z,10.98
2023-05-14T00:33:56.282Z,10.88
2023-05-14T00:36:23.568Z,11.10
2023-05-14T00:38:51.087Z,10.02
2023-05-14T00:41:18.359Z,10.88
2023-05-14T00:43:45.736Z,9.63
2023-05-14T00:46:13.672Z,10.73
2023-05-14T00:48:41.483Z,11.32
2023-05-14T00:51:08.914Z,11.95
2023-05-14T00:53:36.759Z,11.90
2023-05-14T00:56:04.200Z,10.15
2023-05-14T00:58:31.577Z,11.43
2023-05-14T01:00:58.825Z,12.82
2023-05-14T01:03:26.988Z,12.45
2023-05-14T01:06:08.543Z,10.93
2023-05-14T01:08:58.526Z,11.98
2023-05-14T01:11:28.798Z,11.35
2023-05-14T01:14:14.230Z,12.65
2023-05-14T01:16:43.660Z,11.63
2023-05-14T01:19:30.035Z,11.40
2023-05-14T01:21:57.279Z,10.98
2023-05-14T01:24:24.550Z,11.50
2023-05-14T01:26:52.160Z,11.68
2023-05-14T01:29:24.616Z,12.23
2023-05-14T01:31:54.492Z,11.95
2023-05-14T01:34:24.433Z,11.70
2023-05-14T01:36:53.355Z,12.10
2023-05-14T01:39:26.623Z,10.68
2023-05-14T01:41:55.276Z,11.80
2023-05-14T01:44:23.005Z,12.18
2023-05-14T01:46:50.213Z,11.95
2023-05-14T01:49:18.584Z,11.55
2023-05-14T01:51:46.419Z,11.10
2023-05-14T01:54:13.715Z,12.73
2023-05-14T01:56:41.069Z,11.10
2023-05-14T01:59:08.335Z,11.00
2023-05-14T02:01:36.477Z,16.83
2023-05-14T02:04:04.114Z,11.77
2023-05-14T02:06:32.264Z,11.07
2023-05-14T02:08:59.745Z,11.40
2023-05-14T02:11:26.989Z,10.13
2023-05-14T02:13:54.228Z,12.20
2023-05-14T02:16:21.571Z,11.35
2023-05-14T02:18:48.949Z,12.20
2023-05-14T02:21:16.519Z,11.25
2023-05-14T02:23:44.259Z,11.30
2023-05-14T02:26:12.273Z,10.57
2023-05-14T02:28:39.683Z,10.80
2023-05-14T02:31:06.951Z,10.10
2023-05-14T02:33:34.328Z,11.05
2023-05-14T02:36:01.568Z,10.43
2023-05-14T02:38:28.892Z,10.82
2023-05-14T02:40:57.088Z,10.45
2023-05-14T02:43:24.421Z,11.95
2023-05-14T02:45:52.671Z,10.55
2023-05-14T02:48:19.998Z,9.75
2023-05-14T02:50:48.443Z,10.30
2023-05-14T02:53:15.666Z,9.10
2023-05-14T02:55:43.077Z,9.95
2023-05-14T02:58:10.380Z,10.13
2023-05-14T03:00:37.838Z,10.68
2023-05-14T03:03:05.721Z,9.45
2023-05-14T03:05:33.488Z,9.80
2023-05-14T03:08:00.978Z,10.57
2023-05-14T03:10:28.315Z,9.43
2023-05-14T03:12:55.678Z,10.70
2023-05-14T03:15:22.940Z,8.80
2023-05-14T03:17:50.740Z,8.77
2023-05-14T03:20:18.397Z,9.60
2023-05-14T03:22:45.641Z,9.07
2023-05-14T03:25:12.854Z,9.05
2023-05-14T03:27:40.163Z,8.13
2023-05-14T03:30:08.114Z,8.25
2023-05-14T03:32:35.427Z,9.05
2023-05-14T03:35:02.756Z,8.00
2023-05-14T03:37:30.024Z,8.68
2023-05-14T03:39:57.233Z,9.02
2023-05-14T03:42:24.582Z,8.65
2023-05-14T03:44:51.802Z,9.10
2023-05-14T03:47:19.133Z,10.20
2023-05-14T03:49:46.580Z,9.55
2023-05-14T03:52:15.421Z,9.27
2023-05-14T03:54:44.588Z,10.18
2023-05-14T03:57:11.810Z,8.13
2023-05-14T03:59:39.112Z,9.75
2023-05-14T04:02:06.376Z,9.43
2023-05-14T04:04:33.886Z,8.55
2023-05-14T04:07:02.967Z,9.77
2023-05-14T04:09:30.401Z,8.35
2023-05-14T04:11:57.699Z,8.30
2023-05-14T04:14:25.279Z,8.82
2023-05-14T04:16:53.222Z,8.63
2023-05-14T04:19:20.716Z,8.13
2023-05-14T04:21:47.960Z,8.52
2023-05-14T04:24:15.615Z,9.55
2023-05-14T04:26:43.066Z,9.20
2023-05-14T04:29:10.253Z,9.07
2023-05-14T04:31:37.698Z,8.10
2023-05-14T04:34:05.037Z,8.43
2023-05-14T04:36:32.353Z,8.77
2023-05-14T04:38:59.643Z,8.40
2023-05-14T04:41:26.950Z,9.05
2023-05-14T04:43:56.325Z,8.20
2023-05-14T04:46:23.743Z,8.80
2023-05-14T04:48:51.807Z,9.23
2023-05-14T04:51:19.114Z,8.30
2023-05-14T04:53:46.487Z,8.50
2023-05-14T04:56:13.857Z,8.70
2023-05-14T04:58:41.389Z,9.25
2023-05-14T05:01:09.295Z,8.98
2023-05-14T05:03:36.582Z,9.20
2023-05-14T05:06:03.969Z,8.48
2023-05-14T05:08:31.265Z,8.95
2023-05-14T05:10:58.448Z,8.63
2023-05-14T05:13:25.795Z,8.25
2023-05-14T05:15:53.127Z,8.60
2023-05-14T05:18:20.472Z,9.20
2023-05-14T05:20:48.127Z,9.10
2023-05-14T05:23:15.494Z,9.10
2023-05-14T05:25:42.757Z,8.15
2023-05-14T05:28:10.005Z,8.15
2023-05-14T05:30:37.367Z,9.57
2023-05-14T05:33:04.892Z,7.78
2023-05-14T05:35:32.289Z,8.27
2023-05-14T05:38:01.589Z,7.47
2023-05-14T05:40:29.138Z,8.52
2023-05-14T05:42:56.416Z,8.15
2023-05-14T05:45:23.744Z,7.45
2023-05-14T05:47:51.286Z,8.15
2023-05-14T05:50:20.003Z,7.93
2023-05-14T05:52:47.478Z,8.50
2023-05-14T05:55:14.818Z,9.50
2023-05-14T05:57:42.136Z,8.18
2023-05-14T06:00:13.248Z,9.40
2023-05-14T06:02:41.798Z,9.50
2023-05-14T06:05:10.669Z,10.02
2023-05-14T06:07:38.276Z,10.05
2023-05-14T06:10:06.558Z,10.13
2023-05-14T06:12:33.888Z,9.35
2023-05-14T06:15:01.164Z,10.50
2023-05-14T06:17:28.475Z,11.57
2023-05-14T06:19:55.858Z,11.00
2023-05-14T06:22:23.084Z,11.18
2023-05-14T06:24:50.314Z,9.68
2023-05-14T06:27:17.648Z,11.20
2023-05-14T06:29:44.984Z,10.75
2023-05-14T06:32:15.392Z,10.15
2023-05-14T06:34:42.935Z,11.35
2023-05-14T06:37:11.154Z,11.27
2023-05-14T06:39:38.960Z,12.15
2023-05-14T06:42:06.973Z,11.95
2023-05-14T06:44:34.308Z,13.73
2023-05-14T06:47:01.598Z,12.63
2023-05-14T06:49:29.026Z,13.32
2023-05-14T06:51:56.353Z,12.93
2023-05-14T06:54:23.604Z,12.23
2023-05-14T06:56:50.886Z,13.02
2023-05-14T06:59:19.398Z,12.02
2023-05-14T07:01:46.807Z,13.05
2023-05-14T07:04:14.098Z,11.45
2023-05-14T07:06:41.315Z,13.02
2023-05-14T07:09:08.659Z,12.38
2023-05-14T07:11:35.988Z,12.00
2023-05-14T07:14:03.462Z,10.95
2023-05-14T07:16:30.885Z,10.15
2023-05-14T07:18:58.133Z,11.73
2023-05-14T07:21:26.129Z,10.35
2023-05-14T07:23:53.311Z,10.48
2023-05-14T07:26:21.465Z,10.95
2023-05-14T07:28:48.697Z,10.07
2023-05-14T07:31:16.000Z,9.63
2023-05-14T07:33:43.301Z,9.38
2023-05-14T07:36:10.954Z,8.95
2023-05-14T07:38:38.259Z,8.93
2023-05-14T07:41:05.582Z,8.43
2023-05-14T07:43:32.784Z,8.35
2023-05-14T07:46:00.040Z,8.20
2023-05-14T07:48:27.339Z,7.32
2023-05-14T07:50:54.756Z,7.90
2023-05-14T07:53:23.450Z,9.02
2023-05-14T07:55:51.744Z,7.45
2023-05-14T07:58:18.967Z,7.45
2023-05-14T08:00:46.182Z,6.53
2023-05-14T08:03:13.729Z,6.72
2023-05-14T08:05:41.176Z,7.05
2023-05-14T08:08:08.534Z,6.82
2023-05-14T08:10:35.951Z,7.38
2023-05-14T08:13:03.446Z,7.30
2023-05-14T08:15:30.899Z,7.45
2023-05-14T08:18:03.289Z,8.20
2023-05-14T08:20:31.527Z,7.97
2023-05-14T08:22:58.766Z,6.68
2023-05-14T08:25:26.033Z,7.07
2023-05-14T08:27:54.233Z,6.95
2023-05-14T08:30:22.989Z,6.93
2023-05-14T08:32:50.892Z,5.95
2023-05-14T08:35:18.948Z,6.05
2023-05-14T08:37:46.464Z,6.57
2023-05-14T08:40:13.826Z,6.00
2023-05-14T08:42:41.750Z,5.82
2023-05-14T08:45:19.364Z,6.65
2023-05-14T08:47:50.979Z,4.93
2023-05-14T08:50:22.709Z,4.70
2023-05-14T08:52:51.623Z,4.40
2023-05-14T08:55:19.777Z,4.55
2023-05-14T08:57:47.249Z,4.82
2023-05-14T09:00:15.029Z,4.93
2023-05-14T09:02:44.440Z,5.15
2023-05-14T09:05:12.474Z,4.55
2023-05-14T09:07:40.008Z,4.63
2023-05-14T09:10:09.138Z,4.28
2023-05-14T09:12:36.557Z,3.88
2023-05-14T09:15:04.726Z,4.55
2023-05-14T09:17:33.386Z,4.28
2023-05-14T09:20:01.245Z,4.90
2023-05-14T09:22:32.677Z,5.45
2023-05-14T09:25:09.566Z,3.88
2023-05-14T09:27:36.956Z,4.38
2023-05-14T09:30:12.935Z,3.45
2023-05-14T09:32:44.155Z,4.07
2023-05-14T09:35:20.699Z,3.88
2023-05-14T09:37:53.568Z,3.38
2023-05-14T09:40:23.382Z,3.47
2023-05-14T09:42:51.317Z,3.38
2023-05-14T09:45:18.714Z,3.70
2023-05-14T09:47:46.138Z,4.18
2023-05-14T09:50:13.774Z,6.20
2023-05-14T09:52:41.222Z,5.07
2023-05-14T09:55:08.814Z,5.25
2023-05-14T09:57:36.787Z,5.65
2023-05-14T10:00:04.480Z,5.30
2023-05-14T10:02:37.746Z,5.22
2023-05-14T10:05:06.942Z,4.85
2023-05-14T10:07:39.323Z,5.90
2023-05-14T10:10:08.700Z,5.35
2023-05-14T10:12:40.563Z,7.07
2023-05-14T10:15:25.602Z,7.28
2023-05-14T10:17:58.629Z,7.78
2023-05-14T10:20:27.656Z,5.97
2023-05-14T10:22:55.405Z,5.75
2023-05-14T10:25:23.456Z,5.85
2023-05-14T10:27:50.924Z,6.00
2023-05-14T10:30:25.213Z,5.30
2023-05-14T10:33:11.330Z,4.50
2023-05-14T10:35:58.071Z,4.78
2023-05-14T10:38:29.971Z,4.40
2023-05-14T10:41:03.627Z,4.75
2023-05-14T10:43:35.680Z,4.47
2023-05-14T10:46:03.997Z,4.53
2023-05-14T10:48:32.322Z,4.47
2023-05-14T10:51:00.745Z,4.97
2023-05-14T10:53:39.385Z,7.30
2023-05-14T10:56:09.183Z,6.07
2023-05-14T10:58:38.775Z,5.40
2023-05-14T11:01:08.803Z,5.53
2023-05-14T11:03:45.222Z,5.43
2023-05-14T11:06:14.378Z,6.60
2023-05-14T11:08:41.980Z,5.80
2023-05-14T11:11:10.830Z,6.43
2023-05-14T11:13:38.610Z,5.63
2023-05-14T11:18:38.733Z,5.75
2023-05-14T11:21:06.647Z,5.15
2023-05-14T11:23:33.907Z,5.50
2023-05-14T11:26:01.548Z,5.35
2023-05-14T11:28:29.890Z,5.53
2023-05-14T11:30:57.348Z,4.28
2023-05-14T11:33:24.685Z,4.57
2023-05-14T11:35:52.055Z,4.80
2023-05-14T11:38:21.297Z,5.60
2023-05-14T11:40:56.530Z,5.72
2023-05-14T11:43:24.869Z,4.38
2023-05-14T11:45:53.478Z,5.30
2023-05-14T11:48:21.994Z,4.82
2023-05-14T11:50:50.988Z,5.18
2023-05-14T11:53:29.415Z,4.75
2023-05-14T11:56:00.032Z,4.88
2023-05-14T11:58:27.301Z,5.30
2023-05-14T12:00:56.100Z,4.75
2023-05-14T12:03:26.509Z,5.00
2023-05-14T12:05:58.778Z,6.60
2023-05-14T12:08:30.737Z,5.80
2023-05-14T12:11:01.917Z,5.25
2023-05-14T12:13:32.832Z,5.57
2023-05-14T12:16:05.491Z,4.30
2023-05-14T12:18:33.657Z,5.15
2023-05-14T12:21:05.259Z,4.50
2023-05-14T12:23:33.351Z,5.65
2023-05-14T12:26:06.953Z,4.97
2023-05-14T12:28:38.043Z,6.00
2023-05-14T12:31:06.476Z,5.00
2023-05-14T12:33:33.830Z,4.85
2023-05-14T12:36:07.356Z,4.10
2023-05-14T12:38:41.668Z,4.28
2023-05-14T12:41:08.983Z,3.30
2023-05-14T12:43:36.370Z,2.95
2023-05-14T12:46:03.638Z,2.22
2023-05-14T12:48:31.392Z,2.65
2023-05-14T12:50:58.810Z,2.90
2023-05-14T12:53:26.509Z,3.20
2023-05-14T12:55:54.817Z,2.80
2023-05-14T12:58:22.104Z,1.92
2023-05-14T13:00:49.383Z,2.47
2023-05-14T13:03:17.137Z,2.20
2023-05-14T13:05:44.634Z,2.22
2023-05-14T13:08:14.647Z,2.38
2023-05-14T13:10:41.959Z,1.92
2023-05-14T13:13:09.361Z,2.78
2023-05-14T13:15:37.512Z,2.55
2023-05-14T13:18:05.196Z,2.42
2023-05-14T13:20:34.000Z,1.80
2023-05-14T13:23:01.298Z,2.45
2023-05-14T13:25:28.872Z,2.78
2023-05-14T13:27:56.352Z,2.60
2023-05-14T13:30:24.135Z,2.85
2023-05-14T13:32:52.136Z,3.90
2023-05-14T13:35:19.627Z,3.03
2023-05-14T13:37:47.433Z,3.10
2023-05-14T13:40:15.350Z,2.88
2023-05-14T13:42:42.693Z,4.50
2023-05-14T13:45:11.525Z,2.53
2023-05-14T13:47:40.221Z,2.53
2023-05-14T13:50:08.179Z,2.72
2023-05-14T13:52:35.594Z,2.70
2023-05-14T13:55:02.980Z,4.32
2023-05-14T13:57:30.247Z,2.58
2023-05-14T13:59:57.612Z,2.35
2023-05-14T14:02:24.945Z,2.60
2023-05-14T14:04:52.405Z,2.72
2023-05-14T14:07:21.150Z,2.47
2023-05-14T14:09:48.558Z,2.40
2023-05-14T14:12:15.906Z,2.70
2023-05-14T14:14:43.183Z,2.70
2023-05-14T14:17:10.438Z,3.85
2023-05-14T14:19:37.800Z,3.70
2023-05-14T14:22:05.360Z,3.47
2023-05-14T14:24:32.719Z,3.00
2023-05-14T14:27:01.132Z,3.03
2023-05-14T14:29:30.968Z,2.45
2023-05-14T14:31:58.386Z,2.55
2023-05-14T14:34:25.926Z,2.85
2023-05-14T14:36:53.226Z,2.20
2023-05-14T14:39:21.058Z,2.75
2023-05-14T14:41:48.496Z,2.53
2023-05-14T14:44:20.764Z,2.50
2023-05-14T14:46:48.072Z,1.80
2023-05-14T14:49:15.396Z,3.15
2023-05-14T14:51:42.719Z,2.00
2023-05-14T14:54:10.047Z,2.20
2023-05-14T14:56:37.400Z,2.30
2023-05-14T14:59:04.793Z,2.35
2023-05-14T15:01:32.156Z,2.30
2023-05-14T15:03:59.439Z,2.20
2023-05-14T15:06:26.818Z,2.60
2023-05-14T15:08:54.084Z,2.15
2023-05-14T15:11:22.053Z,2.10
2023-05-14T15:13:49.398Z,2.53
2023-05-14T15:16:16.833Z,2.25
2023-05-14T15:18:44.283Z,2.20
2023-05-14T15:21:11.631Z,2.85
2023-05-14T15:23:38.829Z,2.63
2023-05-14T15:26:06.097Z,2.30
2023-05-14T15:28:33.409Z,2.58
2023-05-14T15:31:02.392Z,2.30
2023-05-14T15:33:29.711Z,2.72
2023-05-14T15:35:57.119Z,3.15
2023-05-14T15:38:24.647Z,2.25
2023-05-14T15:40:51.984Z,2.88
2023-05-14T15:43:19.254Z,2.42
2023-05-14T15:45:46.602Z,2.55
2023-05-14T15:48:13.879Z,3.40
2023-05-14T15:50:42.151Z,2.20
2023-05-14T15:53:09.422Z,2.13
2023-05-14T15:55:36.702Z,2.60
2023-05-14T15:58:03.990Z,2.25
2023-05-14T16:00:31.399Z,2.60
2023-05-14T16:02:58.844Z,2.90
2023-05-14T16:05:26.195Z,2.15
2023-05-14T16:07:53.528Z,2.42
2023-05-14T16:10:21.503Z,2.60
2023-05-14T16:12:48.959Z,2.47
2023-05-14T16:15:16.488Z,2.13
2023-05-14T16:17:43.839Z,2.90
2023-05-14T16:20:12.490Z,2.50
2023-05-14T16:22:40.096Z,2.78
2023-05-14T16:25:08.176Z,3.17
2023-05-14T16:27:35.535Z,2.40
2023-05-14T16:30:02.859Z,2.33
2023-05-14T16:32:30.274Z,2.70
2023-05-14T16:34:57.537Z,2.38
2023-05-14T16:37:24.902Z,1.90
2023-05-14T16:39:52.253Z,2.50
2023-05-14T16:42:19.465Z,2.78
2023-05-14T16:44:46.661Z,2.75
2023-05-14T16:47:13.887Z,2.78
2023-05-14T16:49:41.289Z,2.60
2023-05-14T16:52:08.644Z,2.40
2023-05-14T16:54:36.383Z,2.30
2023-05-14T16:57:04.067Z,2.08
2023-05-14T16:59:32.047Z,1.75
2023-05-14T17:01:59.404Z,2.20
2023-05-14T17:04:26.837Z,2.15
2023-05-14T17:06:54.659Z,2.42
2023-05-14T17:09:24.876Z,2.15
2023-05-14T17:11:52.158Z,2.17
2023-05-14T17:14:19.568Z,1.85
2023-05-14T17:16:47.050Z,2.20
2023-05-14T17:19:14.653Z,1.80
2023-05-14T17:21:42.301Z,2.25
2023-05-14T17:24:09.577Z,2.00
2023-05-14T17:26:37.776Z,2.28
2023-05-14T17:29:05.218Z,2.20
2023-05-14T17:31:35.228Z,2.30
2023-05-14T17:34:02.898Z,2.03
2023-05-14T17:36:31.868Z,2.33
2023-05-14T17:38:59.212Z,2.10
2023-05-14T17:41:26.692Z,2.50
2023-05-14T17:43:53.922Z,2.58
2023-05-14T17:46:21.571Z,2.17
2023-05-14T17:48:48.952Z,2.97
2023-05-14T17:51:16.264Z,2.90
2023-05-14T17:53:43.618Z,2.58
2023-05-14T17:56:11.290Z,2.38
2023-05-14T17:58:38.519Z,2.38
2023-05-14T18:01:06.105Z,2.47
2023-05-14T18:03:33.963Z,2.30
2023-05-14T18:06:01.617Z,1.92
2023-05-14T18:08:28.932Z,2.42
2023-05-14T18:10:56.330Z,2.22
2023-05-14T18:13:23.553Z,2.75
2023-05-14T18:15:54.152Z,1.88
2023-05-14T18:18:23.490Z,1.80
2023-05-14T18:20:51.807Z,2.08
2023-05-14T18:23:19.156Z,2.10
2023-05-14T18:25:47.973Z,2.75
2023-05-14T18:28:15.700Z,2.10
2023-05-14T18:30:43.515Z,2.13
2023-05-14T18:33:11.090Z,1.80
2023-05-14T18:35:38.476Z,2.22
2023-05-14T18:38:08.036Z,2.42
2023-05-14T18:40:35.357Z,2.17
2023-05-14T18:43:02.937Z,2.90
2023-05-14T18:45:31.598Z,2.28
2023-05-14T18:47:58.925Z,2.97
2023-05-14T18:50:26.148Z,3.45
2023-05-14T18:52:53.389Z,2.75
2023-05-14T18:55:20.734Z,3.00
2023-05-14T18:57:47.915Z,2.60
2023-05-14T19:00:15.761Z,3.15
2023-05-14T19:02:43.455Z,3.08
2023-05-14T19:05:10.873Z,3.40
2023-05-14T19:07:38.577Z,3.53
2023-05-14T19:10:06.758Z,3.28
2023-05-14T19:12:33.917Z,3.95
2023-05-14T19:15:01.210Z,2.83
2023-05-14T19:17:29.223Z,2.80
2023-05-14T19:19:56.673Z,2.55
2023-05-14T19:22:23.921Z,2.80
2023-05-14T19:24:51.138Z,2.40
2023-05-14T19:27:18.544Z,3.15
2023-05-14T19:29:45.837Z,1.85
2023-05-14T19:32:13.174Z,2.20
2023-05-14T19:34:40.407Z,3.20
2023-05-14T19:37:07.880Z,7.80
2023-05-14T19:39:35.250Z,4.30
2023-05-14T19:42:02.601Z,3.22
2023-05-14T19:44:30.806Z,3.30
2023-05-14T19:46:58.207Z,3.25
2023-05-14T19:49:25.555Z,3.33
2023-05-14T19:51:52.839Z,3.10
2023-05-14T19:54:20.199Z,2.55
2023-05-14T19:56:47.497Z,2.30
2023-05-14T19:59:14.849Z,3.00
2023-05-14T20:01:42.211Z,2.67
2023-05-14T20:04:09.547Z,2.60
2023-05-14T20:06:38.093Z,2.65
2023-05-14T20:09:05.858Z,2.70
2023-05-14T20:11:33.136Z,2.80
2023-05-14T20:14:00.411Z,2.30
2023-05-14T20:16:28.589Z,2.10
2023-05-14T20:18:56.275Z,2.40
2023-05-14T20:21:23.736Z,2.08
2023-05-14T20:23:50.957Z,2.47
2023-05-14T20:26:18.274Z,2.47
2023-05-14T20:28:45.547Z,2.72
2023-05-14T20:31:12.951Z,2.30
2023-05-14T20:33:40.340Z,2.20
2023-05-14T20:36:07.565Z,1.70
2023-05-14T20:38:35.043Z,1.67
2023-05-14T20:41:02.904Z,1.60
2023-05-14T20:43:30.267Z,1.70
2023-05-14T20:45:58.931Z,1.65
2023-05-14T20:48:26.468Z,2.10
2023-05-14T20:50:53.685Z,1.77
2023-05-14T20:53:21.265Z,1.60
2023-05-14T20:55:48.542Z,1.70
2023-05-14T20:58:15.862Z,1.63
2023-05-14T21:00:43.461Z,1.75
2023-05-14T21:03:10.972Z,2.38
2023-05-14T21:05:40.161Z,2.00
2023-05-14T21:08:08.018Z,1.63
2023-05-14T21:10:35.498Z,1.52
2023-05-14T21:13:02.932Z,1.63
2023-05-14T21:15:30.710Z,1.67
2023-05-14T21:17:58.205Z,1.70
2023-05-14T21:20:25.493Z,1.85
2023-05-14T21:22:52.658Z,1.92
2023-05-14T21:25:20.050Z,1.90
2023-05-14T21:27:47.571Z,1.77
2023-05-14T21:30:15.306Z,1.83
2023-05-14T21:32:42.523Z,1.42
2023-05-14T21:35:09.968Z,1.80
2023-05-14T21:37:39.299Z,1.98
2023-05-14T21:40:12.388Z,1.88
2023-05-14T21:42:40.824Z,1.67
2023-05-14T21:45:08.627Z,1.83
2023-05-14T21:47:36.793Z,1.95
2023-05-14T21:50:04.954Z,1.55
2023-05-14T21:52:32.307Z,2.08
2023-05-14T21:54:59.569Z,1.75
2023-05-14T21:57:28.414Z,1.92
2023-05-14T21:59:56.198Z,2.30
2023-05-14T22:02:28.416Z,2.08
2023-05-14T22:04:55.779Z,2.42
2023-05-14T22:07:23.140Z,2.30
2023-05-14T22:09:50.512Z,2.50
2023-05-14T22:12:17.744Z,2.38
2023-05-14T22:14:46.131Z,2.30
2023-05-14T22:17:13.395Z,2.08
2023-05-14T22:19:40.750Z,2.00
2023-05-14T22:22:07.996Z,2.50
2023-05-14T22:24:35.290Z,2.28
2023-05-14T22:27:02.592Z,2.47
2023-05-14T22:29:29.765Z,2.45
2023-05-14T22:31:57.037Z,2.80
2023-05-14T22:34:24.333Z,2.78
2023-05-14T22:36:51.654Z,2.50
2023-05-14T22:39:19.035Z,2.42
2023-05-14T22:41:46.293Z,2.58
2023-05-14T22:44:13.951Z,2.50
2023-05-14T22:46:41.278Z,2.63
2023-05-14T22:49:08.507Z,2.70
2023-05-14T22:51:35.802Z,2.83
2023-05-14T22:54:03.063Z,3.00
2023-05-14T22:56:30.858Z,2.95
2023-05-14T22:59:00.349Z,2.78
2023-05-14T23:01:28.921Z,3.20
2023-05-14T23:03:56.226Z,3.13
2023-05-14T23:06:24.613Z,3.40
2023-05-14T23:08:51.903Z,3.60
2023-05-14T23:11:19.246Z,3.60
2023-05-14T23:13:46.518Z,3.95
2023-05-14T23:16:14.091Z,4.10
2023-05-14T23:18:41.425Z,3.70
2023-05-14T23:21:09.062Z,4.28
2023-05-14T23:23:36.317Z,4.38
2023-05-14T23:26:03.725Z,4.30
2023-05-14T23:28:31.473Z,4.72
2023-05-14T23:30:59.081Z,4.30
2023-05-14T23:33:26.555Z,4.30
2023-05-14T23:35:53.894Z,4.55
2023-05-14T23:38:21.470Z,4.78
2023-05-14T23:40:49.011Z,5.22
2023-05-14T23:43:16.269Z,4.78
2023-05-14T23:45:43.629Z,5.35
2023-05-14T23:48:10.952Z,5.13
2023-05-14T23:50:38.191Z,6.03
2023-05-14T23:53:05.460Z,5.70
2023-05-14T23:55:32.780Z,5.30
2023-05-14T23:58:00.028Z,5.53
